createdAt,value
2018-05-01T00:00:37.254Z,0
2018-05-01T00:01:37.835Z,0
2018-05-01T00:02:37.275Z,0
2018-05-01T00:03:37.294Z,0
2018-05-01T00:04:37.864Z,0
2018-05-01T00:05:37.914Z,0
2018-05-01T00:06:37.082Z,0
2018-05-01T00:07:37.934Z,0
2018-05-01T00:08:37.978Z,0
2018-05-01T00:09:38.345Z,0
2018-05-01T00:10:37.997Z,0
2018-05-01T00:11:37.262Z,0
2018-05-01T00:12:37.756Z,0
2018-05-01T00:13:38.072Z,0
2018-05-01T00:14:38.064Z,0
2018-05-01T00:15:37.855Z,0
2018-05-01T00:16:38.115Z,0
2018-05-01T00:17:38.178Z,0
2018-05-01T00:18:37.899Z,0
2018-05-01T00:19:37.937Z,0
2018-05-01T00:20:37.678Z,0
2018-05-01T00:21:37.970Z,0
2018-05-01T00:22:37.997Z,0
2018-05-01T00:23:38.023Z,0
2018-05-01T00:24:38.054Z,0
2018-05-01T00:25:37.767Z,0
2018-05-01T00:26:37.803Z,0
2018-05-01T00:27:38.103Z,0
2018-05-01T00:28:38.401Z,0
2018-05-01T00:29:38.143Z,0
2018-05-01T00:30:37.890Z,0
2018-05-01T00:31:38.194Z,0
2018-05-01T00:32:38.206Z,0
2018-05-01T00:33:38.212Z,0
2018-05-01T00:34:37.955Z,0
2018-05-01T00:35:37.952Z,0
2018-05-01T00:36:38.281Z,0
2018-05-01T00:37:38.566Z,0
2018-05-01T00:38:38.315Z,0
2018-05-01T00:39:38.638Z,0
2018-05-01T00:40:38.364Z,0
2018-05-01T00:41:38.098Z,0
2018-05-01T00:42:38.134Z,0
2018-05-01T00:43:38.413Z,0
2018-05-01T00:44:38.467Z,0
2018-05-01T00:45:38.441Z,0
2018-05-01T00:46:38.503Z,0
2018-05-01T00:47:38.234Z,0
2018-05-01T00:48:38.519Z,0
2018-05-01T00:49:38.247Z,0
2018-05-01T00:50:38.581Z,0
2018-05-01T00:51:39.196Z,0
2018-05-01T00:52:38.907Z,0
2018-05-01T00:53:38.907Z,0
2018-05-01T00:54:38.933Z,0
2018-05-01T00:55:38.403Z,0
2018-05-01T00:56:38.672Z,0
2018-05-01T00:57:38.163Z,0
2018-05-01T00:58:38.762Z,0
2018-05-01T00:59:38.462Z,0
2018-05-01T01:00:38.581Z,0
2018-05-01T01:01:38.507Z,0
2018-05-01T01:02:38.524Z,0
2018-05-01T01:03:38.628Z,0
2018-05-01T01:04:38.585Z,0
2018-05-01T01:05:38.930Z,0
2018-05-01T01:06:39.203Z,0
2018-05-01T01:07:38.913Z,0
2018-05-01T01:08:38.699Z,0
2018-05-01T01:09:39.263Z,0
2018-05-01T01:10:39.029Z,0
2018-05-01T01:11:39.305Z,0
2018-05-01T01:12:39.040Z,0
2018-05-01T01:13:39.331Z,0
2018-05-01T01:14:38.800Z,0
2018-05-01T01:15:39.081Z,0
2018-05-01T01:16:38.912Z,0
2018-05-01T01:17:39.144Z,0
2018-05-01T01:18:39.447Z,0
2018-05-01T01:19:39.172Z,0
2018-05-01T01:20:39.189Z,0
2018-05-01T01:21:38.995Z,0
2018-05-01T01:22:39.523Z,0
2018-05-01T01:23:39.529Z,0
2018-05-01T01:24:39.021Z,0
2018-05-01T01:25:39.309Z,0
2018-05-01T01:26:39.051Z,0
2018-05-01T01:27:39.333Z,0
2018-05-01T01:28:39.641Z,0
2018-05-01T01:29:39.396Z,0
2018-05-01T01:30:39.709Z,0
2018-05-01T01:31:39.433Z,0
2018-05-01T01:32:39.423Z,0
2018-05-01T01:33:39.725Z,0
2018-05-01T01:34:39.777Z,0
2018-05-01T01:35:39.253Z,0
2018-05-01T01:36:39.182Z,0
2018-05-01T01:37:39.563Z,0
2018-05-01T01:38:39.860Z,0
2018-05-01T01:39:39.865Z,0
2018-05-01T01:40:39.883Z,0
2018-05-01T01:41:39.931Z,0
2018-05-01T01:42:39.941Z,0
2018-05-01T01:43:39.953Z,0
2018-05-01T01:44:39.695Z,0
2018-05-01T01:45:40.956Z,0
2018-05-01T01:46:39.914Z,0
2018-05-01T01:47:40.868Z,0
2018-05-01T01:48:40.018Z,0
2018-05-01T01:49:40.005Z,0
2018-05-01T01:50:40.566Z,0
2018-05-01T01:51:40.338Z,0
2018-05-01T01:52:40.803Z,0
2018-05-01T01:53:40.502Z,0
2018-05-01T01:54:40.835Z,0
2018-05-01T01:55:40.678Z,0
2018-05-01T01:56:40.695Z,0
2018-05-01T01:57:41.212Z,0
2018-05-01T01:58:40.664Z,0
2018-05-01T01:59:41.071Z,0
2018-05-01T02:00:40.664Z,0
2018-05-01T02:01:40.625Z,0
2018-05-01T02:02:40.440Z,0
2018-05-01T02:03:40.719Z,0
2018-05-01T02:04:40.815Z,0
2018-05-01T02:05:41.172Z,0
2018-05-01T02:06:41.182Z,0
2018-05-01T02:07:41.138Z,0
2018-05-01T02:08:41.188Z,0
2018-05-01T02:09:41.166Z,0
2018-05-01T02:10:41.051Z,0
2018-05-01T02:11:40.545Z,0
2018-05-01T02:12:41.030Z,0
2018-05-01T02:13:40.583Z,0
2018-05-01T02:14:40.317Z,0
2018-05-01T02:15:40.676Z,0
2018-05-01T02:16:41.126Z,0
2018-05-01T02:17:40.885Z,0
2018-05-01T02:18:41.396Z,0
2018-05-01T02:19:40.964Z,0
2018-05-01T02:20:41.460Z,0
2018-05-01T02:21:41.188Z,0
2018-05-01T02:22:40.525Z,0
2018-05-01T02:23:40.491Z,0
2018-05-01T02:24:40.825Z,0
2018-05-01T02:25:41.439Z,0
2018-05-01T02:26:41.180Z,0
2018-05-01T02:27:41.245Z,0
2018-05-01T02:28:40.666Z,0
2018-05-01T02:29:41.145Z,0
2018-05-01T02:30:40.925Z,0
2018-05-01T02:31:40.768Z,0
2018-05-01T02:32:41.438Z,0
2018-05-01T02:33:40.816Z,0
2018-05-01T02:34:41.033Z,0
2018-05-01T02:35:41.339Z,0
2018-05-01T02:36:41.529Z,0
2018-05-01T02:37:41.096Z,0
2018-05-01T02:38:41.105Z,0
2018-05-01T02:39:40.518Z,0
2018-05-01T02:40:40.848Z,0
2018-05-01T02:41:41.140Z,0
2018-05-01T02:42:41.174Z,0
2018-05-01T02:43:40.896Z,0
2018-05-01T02:44:41.197Z,0
2018-05-01T02:45:40.660Z,0
2018-05-01T02:46:41.057Z,0
2018-05-01T02:47:40.997Z,0
2018-05-01T02:48:41.128Z,0
2018-05-01T02:49:41.850Z,0
2018-05-01T02:50:41.460Z,0
2018-05-01T02:51:41.127Z,0
2018-05-01T02:52:40.837Z,0
2018-05-01T02:53:41.109Z,0
2018-05-01T02:54:41.408Z,0
2018-05-01T02:55:41.177Z,0
2018-05-01T02:56:41.431Z,0
2018-05-01T02:57:41.456Z,0
2018-05-01T02:58:41.515Z,0
2018-05-01T02:59:41.223Z,0
2018-05-01T03:00:41.220Z,0
2018-05-01T03:01:41.522Z,0
2018-05-01T03:02:41.565Z,0
2018-05-01T03:03:41.563Z,0
2018-05-01T03:04:41.639Z,0
2018-05-01T03:05:41.322Z,0
2018-05-01T03:06:41.682Z,0
2018-05-01T03:07:41.642Z,0
2018-05-01T03:08:41.124Z,0
2018-05-01T03:09:41.230Z,0
2018-05-01T03:10:41.729Z,0
2018-05-01T03:11:41.822Z,0
2018-05-01T03:12:41.447Z,0
2018-05-01T03:13:41.791Z,0
2018-05-01T03:14:41.610Z,0
2018-05-01T03:15:41.830Z,0
2018-05-01T03:16:41.916Z,0
2018-05-01T03:17:41.848Z,0
2018-05-01T03:18:41.851Z,0
2018-05-01T03:19:41.623Z,0
2018-05-01T03:20:41.362Z,0
2018-05-01T03:21:41.933Z,0
2018-05-01T03:22:41.691Z,0
2018-05-01T03:23:41.970Z,0
2018-05-01T03:24:41.977Z,0
2018-05-01T03:25:41.988Z,0
2018-05-01T03:26:42.072Z,0
2018-05-01T03:27:42.099Z,0
2018-05-01T03:28:42.059Z,0
2018-05-01T03:29:41.800Z,0
2018-05-01T03:30:42.107Z,0
2018-05-01T03:31:42.247Z,0
2018-05-01T03:32:41.887Z,0
2018-05-01T03:33:41.628Z,0
2018-05-01T03:34:42.172Z,0
2018-05-01T03:35:41.937Z,0
2018-05-01T03:36:42.254Z,0
2018-05-01T03:37:42.260Z,0
2018-05-01T03:38:42.260Z,0
2018-05-01T03:39:42.007Z,0
2018-05-01T03:40:42.289Z,0
2018-05-01T03:41:42.318Z,0
2018-05-01T03:42:42.352Z,0
2018-05-01T03:43:42.370Z,0
2018-05-01T03:44:42.110Z,0
2018-05-01T03:45:42.430Z,0
2018-05-01T03:46:42.424Z,0
2018-05-01T03:47:42.448Z,0
2018-05-01T03:48:42.451Z,0
2018-05-01T03:49:42.196Z,0
2018-05-01T03:50:42.498Z,0
2018-05-01T03:51:42.276Z,0
2018-05-01T03:52:42.557Z,0
2018-05-01T03:53:42.292Z,0
2018-05-01T03:54:42.585Z,0
2018-05-01T03:55:42.737Z,0
2018-05-01T03:56:42.331Z,0
2018-05-01T03:57:42.662Z,0
2018-05-01T03:58:42.649Z,0
2018-05-01T03:59:42.686Z,0
2018-05-01T04:00:42.131Z,0
2018-05-01T04:01:41.877Z,0
2018-05-01T04:02:42.765Z,0
2018-05-01T04:03:42.743Z,0
2018-05-01T04:04:42.762Z,0
2018-05-01T04:05:42.541Z,0
2018-05-01T04:06:42.829Z,0
2018-05-01T04:07:42.842Z,0
2018-05-01T04:08:42.598Z,0
2018-05-01T04:09:42.580Z,0
2018-05-01T04:10:42.599Z,0
2018-05-01T04:11:42.715Z,0
2018-05-01T04:12:42.931Z,0
2018-05-01T04:13:42.680Z,0
2018-05-01T04:14:42.681Z,0
2018-05-01T04:15:43.595Z,0
2018-05-01T04:16:43.713Z,0
2018-05-01T04:17:43.957Z,0
2018-05-01T04:18:44.134Z,0
2018-05-01T04:19:42.783Z,0
2018-05-01T04:20:43.900Z,0
2018-05-01T04:21:44.120Z,0
2018-05-01T04:22:43.979Z,0
2018-05-01T04:23:44.140Z,0
2018-05-01T04:24:43.710Z,0
2018-05-01T04:25:43.268Z,0
2018-05-01T04:26:44.064Z,0
2018-05-01T04:27:44.064Z,0
2018-05-01T04:28:44.590Z,0
2018-05-01T04:29:43.569Z,0
2018-05-01T04:30:44.402Z,0
2018-05-01T04:31:43.631Z,0
2018-05-01T04:32:44.462Z,0
2018-05-01T04:33:44.267Z,0
2018-05-01T04:34:44.381Z,0
2018-05-01T04:35:44.039Z,0
2018-05-01T04:36:44.312Z,0
2018-05-01T04:37:45.046Z,0
2018-05-01T04:38:44.639Z,0
2018-05-01T04:39:44.156Z,0
2018-05-01T04:40:44.404Z,0
2018-05-01T04:41:43.906Z,0
2018-05-01T04:42:44.653Z,0
2018-05-01T04:43:44.335Z,0
2018-05-01T04:44:44.538Z,0
2018-05-01T04:45:44.488Z,0
2018-05-01T04:46:44.795Z,0
2018-05-01T04:47:44.891Z,0
2018-05-01T04:48:43.834Z,0
2018-05-01T04:49:44.498Z,5
2018-05-01T04:50:44.626Z,5
2018-05-01T04:51:44.351Z,5
2018-05-01T04:52:44.458Z,5
2018-05-01T04:53:43.743Z,5
2018-05-01T04:54:43.477Z,5
2018-05-01T04:55:43.537Z,5
2018-05-01T04:56:43.539Z,5
2018-05-01T04:57:43.559Z,5
2018-05-01T04:58:44.660Z,5
2018-05-01T04:59:43.575Z,5
2018-05-01T05:00:43.614Z,5
2018-05-01T05:01:43.916Z,5
2018-05-01T05:02:43.896Z,5
2018-05-01T05:03:43.663Z,5
2018-05-01T05:04:43.650Z,5
2018-05-01T05:05:43.964Z,5
2018-05-01T05:06:43.709Z,5
2018-05-01T05:07:44.042Z,5
2018-05-01T05:08:43.724Z,5
2018-05-01T05:09:43.886Z,5
2018-05-01T05:10:44.084Z,5
2018-05-01T05:11:43.792Z,5
2018-05-01T05:12:43.814Z,0
2018-05-01T05:13:43.847Z,0
2018-05-01T05:14:43.888Z,5
2018-05-01T05:15:43.987Z,0
2018-05-01T05:16:44.182Z,0
2018-05-01T05:17:43.969Z,0
2018-05-01T05:18:43.955Z,5
2018-05-01T05:19:43.976Z,5
2018-05-01T05:20:43.998Z,5
2018-05-01T05:21:44.015Z,5
2018-05-01T05:22:43.779Z,5
2018-05-01T05:23:44.315Z,5
2018-05-01T05:24:43.748Z,5
2018-05-01T05:25:44.386Z,5
2018-05-01T05:26:44.375Z,5
2018-05-01T05:27:43.879Z,5
2018-05-01T05:28:44.164Z,5
2018-05-01T05:29:44.136Z,5
2018-05-01T05:30:44.155Z,5
2018-05-01T05:31:44.474Z,5
2018-05-01T05:32:44.222Z,5
2018-05-01T05:33:44.478Z,5
2018-05-01T05:34:44.258Z,5
2018-05-01T05:35:44.540Z,5
2018-05-01T05:36:44.308Z,5
2018-05-01T05:37:44.294Z,5
2018-05-01T05:38:44.625Z,5
2018-05-01T05:39:44.617Z,5
2018-05-01T05:40:44.348Z,5
2018-05-01T05:41:44.645Z,0
2018-05-01T05:42:44.505Z,0
2018-05-01T05:43:44.715Z,0
2018-05-01T05:44:44.788Z,5
2018-05-01T05:45:44.484Z,5
2018-05-01T05:46:44.764Z,5
2018-05-01T05:47:44.515Z,5
2018-05-01T05:48:44.825Z,5
2018-05-01T05:49:44.544Z,5
2018-05-01T05:50:44.556Z,5
2018-05-01T05:51:44.609Z,5
2018-05-01T05:52:44.570Z,5
2018-05-01T05:53:44.608Z,5
2018-05-01T05:54:44.631Z,5
2018-05-01T05:55:44.947Z,5
2018-05-01T05:56:44.978Z,5
2018-05-01T05:57:44.709Z,5
2018-05-01T05:58:44.162Z,5
2018-05-01T05:59:45.015Z,5
2018-05-01T06:00:45.031Z,5
2018-05-01T06:01:45.070Z,5
2018-05-01T06:02:44.788Z,5
2018-05-01T06:03:45.088Z,5
2018-05-01T06:04:45.138Z,5
2018-05-01T06:05:45.124Z,5
2018-05-01T06:06:44.575Z,5
2018-05-01T06:07:45.116Z,5
2018-05-01T06:08:45.413Z,5
2018-05-01T06:09:45.247Z,5
2018-05-01T06:10:45.217Z,5
2018-05-01T06:11:45.252Z,5
2018-05-01T06:12:44.961Z,5
2018-05-01T06:13:44.933Z,5
2018-05-01T06:14:45.050Z,5
2018-05-01T06:15:45.338Z,5
2018-05-01T06:16:45.323Z,5
2018-05-01T06:17:45.091Z,5
2018-05-01T06:18:45.092Z,5
2018-05-01T06:19:45.141Z,5
2018-05-01T06:20:44.873Z,5
2018-05-01T06:21:44.903Z,5
2018-05-01T06:22:44.691Z,5
2018-05-01T06:23:45.195Z,5
2018-05-01T06:24:45.483Z,5
2018-05-01T06:25:45.544Z,5
2018-05-01T06:26:45.251Z,5
2018-05-01T06:27:45.033Z,5
2018-05-01T06:28:45.006Z,5
2018-05-01T06:29:45.308Z,5
2018-05-01T06:30:45.341Z,5
2018-05-01T06:31:45.633Z,5
2018-05-01T06:32:45.635Z,5
2018-05-01T06:33:45.111Z,5
2018-05-01T06:34:45.701Z,5
2018-05-01T06:35:45.435Z,5
2018-05-01T06:36:45.728Z,5
2018-05-01T06:37:45.765Z,5
2018-05-01T06:38:45.483Z,5
2018-05-01T06:39:45.548Z,5
2018-05-01T06:40:45.522Z,5
2018-05-01T06:41:45.816Z,5
2018-05-01T06:42:45.839Z,5
2018-05-01T06:43:45.867Z,5
2018-05-01T06:44:45.027Z,5
2018-05-01T06:45:45.598Z,5
2018-05-01T06:46:45.923Z,10
2018-05-01T06:47:45.926Z,10
2018-05-01T06:48:45.970Z,10
2018-05-01T06:49:45.417Z,15
2018-05-01T06:50:45.481Z,10
2018-05-01T06:51:45.991Z,10
2018-05-01T06:52:45.753Z,15
2018-05-01T06:53:46.060Z,10
2018-05-01T06:54:45.492Z,10
2018-05-01T06:55:45.839Z,15
2018-05-01T06:56:45.366Z,15
2018-05-01T06:57:45.651Z,20
2018-05-01T06:58:45.569Z,20
2018-05-01T06:59:45.889Z,20
2018-05-01T07:00:45.638Z,25
2018-05-01T07:01:45.910Z,25
2018-05-01T07:02:45.978Z,25
2018-05-01T07:03:45.961Z,20
2018-05-01T07:04:46.366Z,20
2018-05-01T07:05:46.268Z,25
2018-05-01T07:06:45.747Z,25
2018-05-01T07:07:45.746Z,25
2018-05-01T07:08:46.316Z,20
2018-05-01T07:09:46.062Z,20
2018-05-01T07:10:45.959Z,20
2018-05-01T07:11:46.374Z,20
2018-05-01T07:12:46.128Z,20
2018-05-01T07:13:45.846Z,25
2018-05-01T07:14:45.883Z,25
2018-05-01T07:15:46.554Z,25
2018-05-01T07:16:45.947Z,30
2018-05-01T07:17:46.209Z,30
2018-05-01T07:18:45.934Z,30
2018-05-01T07:19:46.518Z,30
2018-05-01T07:20:46.592Z,25
2018-05-01T07:21:46.280Z,25
2018-05-01T07:22:46.321Z,30
2018-05-01T07:23:46.416Z,30
2018-05-01T07:24:46.659Z,30
2018-05-01T07:25:46.645Z,30
2018-05-01T07:26:46.420Z,30
2018-05-01T07:27:46.405Z,30
2018-05-01T07:28:46.475Z,30
2018-05-01T07:29:46.176Z,30
2018-05-01T07:30:46.464Z,30
2018-05-01T07:31:46.767Z,30
2018-05-01T07:32:46.226Z,30
2018-05-01T07:33:46.573Z,30
2018-05-01T07:34:46.570Z,35
2018-05-01T07:35:46.729Z,35
2018-05-01T07:36:46.875Z,35
2018-05-01T07:37:46.930Z,35
2018-05-01T07:38:46.932Z,35
2018-05-01T07:39:46.665Z,35
2018-05-01T07:40:46.942Z,35
2018-05-01T07:41:46.874Z,35
2018-05-01T07:42:46.692Z,40
2018-05-01T07:43:47.080Z,35
2018-05-01T07:44:46.772Z,35
2018-05-01T07:45:46.775Z,35
2018-05-01T07:46:47.067Z,35
2018-05-01T07:47:46.814Z,35
2018-05-01T07:48:47.075Z,35
2018-05-01T07:49:46.845Z,35
2018-05-01T07:50:47.137Z,35
2018-05-01T07:51:47.166Z,40
2018-05-01T07:52:47.165Z,40
2018-05-01T07:53:47.204Z,40
2018-05-01T07:54:46.646Z,40
2018-05-01T07:55:46.954Z,40
2018-05-01T07:56:46.696Z,40
2018-05-01T07:57:46.983Z,40
2018-05-01T07:58:47.080Z,40
2018-05-01T07:59:47.026Z,40
2018-05-01T08:00:47.048Z,40
2018-05-01T08:01:46.805Z,40
2018-05-01T08:02:47.086Z,40
2018-05-01T08:03:47.509Z,45
2018-05-01T08:04:47.149Z,45
2018-05-01T08:05:47.427Z,45
2018-05-01T08:06:47.460Z,45
2018-05-01T08:07:47.493Z,45
2018-05-01T08:08:47.555Z,45
2018-05-01T08:09:47.497Z,45
2018-05-01T08:10:47.646Z,45
2018-05-01T08:11:47.599Z,40
2018-05-01T08:12:48.074Z,45
2018-05-01T08:13:50.229Z,45
2018-05-01T08:14:49.031Z,45
2018-05-01T08:15:48.158Z,45
2018-05-01T08:16:48.086Z,45
2018-05-01T08:17:49.553Z,45
2018-05-01T08:19:02.757Z,45
2018-05-01T08:19:48.370Z,45
2018-05-01T08:20:48.383Z,45
2018-05-01T08:21:48.409Z,45
2018-05-01T08:22:48.518Z,45
2018-05-01T08:23:49.694Z,45
2018-05-01T08:24:48.435Z,45
2018-05-01T08:25:48.624Z,45
2018-05-01T08:26:49.444Z,45
2018-05-01T08:27:49.751Z,40
2018-05-01T08:28:51.350Z,35
2018-05-01T08:29:49.537Z,35
2018-05-01T08:30:47.990Z,30
2018-05-01T08:31:49.401Z,20
2018-05-01T08:32:49.630Z,15
2018-05-01T08:33:49.518Z,15
2018-05-01T08:34:48.874Z,10
2018-05-01T08:35:48.562Z,10
2018-05-01T08:36:50.055Z,10
2018-05-01T08:37:47.980Z,10
2018-05-01T08:38:48.091Z,10
2018-05-01T08:39:47.946Z,10
2018-05-01T08:40:48.164Z,10
2018-05-01T08:41:48.164Z,10
2018-05-01T08:42:47.904Z,10
2018-05-01T08:43:48.228Z,10
2018-05-01T08:44:48.226Z,10
2018-05-01T08:45:47.682Z,10
2018-05-01T08:46:48.244Z,10
2018-05-01T08:47:47.976Z,10
2018-05-01T08:48:47.728Z,10
2018-05-01T08:49:48.379Z,10
2018-05-01T08:50:48.380Z,10
2018-05-01T08:51:48.104Z,10
2018-05-01T08:52:48.394Z,10
2018-05-01T08:53:48.426Z,10
2018-05-01T08:54:48.444Z,10
2018-05-01T08:55:48.480Z,10
2018-05-01T08:56:48.197Z,10
2018-05-01T08:57:48.225Z,10
2018-05-01T08:58:48.212Z,10
2018-05-01T08:59:48.596Z,10
2018-05-01T09:00:48.560Z,15
2018-05-01T09:01:48.549Z,15
2018-05-01T09:02:48.591Z,10
2018-05-01T09:03:48.356Z,15
2018-05-01T09:04:48.646Z,15
2018-05-01T09:05:48.087Z,10
2018-05-01T09:06:48.407Z,15
2018-05-01T09:07:48.403Z,15
2018-05-01T09:08:48.156Z,15
2018-05-01T09:09:48.740Z,15
2018-05-01T09:10:48.197Z,15
2018-05-01T09:11:48.503Z,15
2018-05-01T09:12:48.534Z,15
2018-05-01T09:13:48.547Z,15
2018-05-01T09:14:48.584Z,15
2018-05-01T09:15:48.863Z,15
2018-05-01T09:16:48.604Z,15
2018-05-01T09:17:48.882Z,15
2018-05-01T09:18:48.660Z,15
2018-05-01T09:19:49.021Z,5
2018-05-01T09:20:48.676Z,15
2018-05-01T09:21:48.975Z,15
2018-05-01T09:22:49.079Z,15
2018-05-01T09:23:48.988Z,15
2018-05-01T09:24:48.766Z,15
2018-05-01T09:25:48.478Z,15
2018-05-01T09:26:48.783Z,15
2018-05-01T09:27:48.824Z,15
2018-05-01T09:28:49.116Z,15
2018-05-01T09:29:49.125Z,15
2018-05-01T09:30:48.900Z,15
2018-05-01T09:31:48.899Z,15
2018-05-01T09:32:49.200Z,15
2018-05-01T09:33:49.204Z,15
2018-05-01T09:34:49.275Z,15
2018-05-01T09:35:48.978Z,15
2018-05-01T09:36:49.309Z,15
2018-05-01T09:37:49.034Z,15
2018-05-01T09:38:49.318Z,15
2018-05-01T09:39:49.403Z,15
2018-05-01T09:40:49.087Z,15
2018-05-01T09:41:49.133Z,15
2018-05-01T09:42:49.137Z,15
2018-05-01T09:43:48.851Z,15
2018-05-01T09:44:49.201Z,15
2018-05-01T09:45:49.182Z,15
2018-05-01T09:46:49.488Z,20
2018-05-01T09:47:49.137Z,20
2018-05-01T09:48:49.263Z,20
2018-05-01T09:49:49.581Z,20
2018-05-01T09:50:49.565Z,20
2018-05-01T09:51:49.315Z,20
2018-05-01T09:52:49.043Z,20
2018-05-01T09:53:49.649Z,20
2018-05-01T09:54:49.434Z,20
2018-05-01T09:55:49.671Z,20
2018-05-01T09:56:49.427Z,20
2018-05-01T09:57:49.438Z,20
2018-05-01T09:58:49.753Z,20
2018-05-01T09:59:49.762Z,20
2018-05-01T10:00:49.762Z,20
2018-05-01T10:01:49.943Z,20
2018-05-01T10:02:49.262Z,20
2018-05-01T10:03:49.853Z,20
2018-05-01T10:04:49.571Z,20
2018-05-01T10:05:49.590Z,20
2018-05-01T10:06:49.356Z,20
2018-05-01T10:07:49.625Z,20
2018-05-01T10:08:49.683Z,20
2018-05-01T10:09:49.955Z,20
2018-05-01T10:10:50.011Z,20
2018-05-01T10:11:50.016Z,20
2018-05-01T10:12:50.074Z,20
2018-05-01T10:13:50.054Z,20
2018-05-01T10:14:49.803Z,20
2018-05-01T10:15:49.808Z,20
2018-05-01T10:16:49.560Z,20
2018-05-01T10:17:50.159Z,20
2018-05-01T10:18:50.144Z,20
2018-05-01T10:19:50.211Z,20
2018-05-01T10:20:49.943Z,20
2018-05-01T10:21:50.212Z,20
2018-05-01T10:22:49.959Z,25
2018-05-01T10:23:49.993Z,25
2018-05-01T10:24:50.062Z,25
2018-05-01T10:25:50.331Z,25
2018-05-01T10:26:50.371Z,25
2018-05-01T10:27:50.329Z,25
2018-05-01T10:28:50.307Z,25
2018-05-01T10:29:50.383Z,25
2018-05-01T10:30:50.140Z,25
2018-05-01T10:31:50.176Z,25
2018-05-01T10:32:50.276Z,25
2018-05-01T10:33:50.485Z,25
2018-05-01T10:34:50.250Z,25
2018-05-01T10:35:50.553Z,25
2018-05-01T10:36:50.017Z,25
2018-05-01T10:37:50.611Z,25
2018-05-01T10:38:50.868Z,25
2018-05-01T10:39:50.174Z,25
2018-05-01T10:40:50.385Z,25
2018-05-01T10:41:50.380Z,25
2018-05-01T10:42:50.415Z,25
2018-05-01T10:43:50.430Z,25
2018-05-01T10:44:50.269Z,25
2018-05-01T10:45:50.642Z,25
2018-05-01T10:46:50.524Z,25
2018-05-01T10:47:50.796Z,25
2018-05-01T10:48:50.553Z,25
2018-05-01T10:49:50.556Z,25
2018-05-01T10:50:50.304Z,25
2018-05-01T10:51:50.896Z,25
2018-05-01T10:52:50.656Z,30
2018-05-01T10:53:50.909Z,30
2018-05-01T10:54:51.185Z,30
2018-05-01T10:55:51.004Z,30
2018-05-01T10:56:50.718Z,30
2018-05-01T10:57:50.449Z,30
2018-05-01T10:58:51.126Z,30
2018-05-01T10:59:50.838Z,30
2018-05-01T11:00:51.221Z,30
2018-05-01T11:01:51.125Z,30
2018-05-01T11:02:51.155Z,30
2018-05-01T11:03:50.586Z,30
2018-05-01T11:04:50.392Z,30
2018-05-01T11:05:50.955Z,30
2018-05-01T11:06:50.930Z,30
2018-05-01T11:07:51.258Z,30
2018-05-01T11:08:51.294Z,30
2018-05-01T11:09:50.735Z,30
2018-05-01T11:10:51.020Z,30
2018-05-01T11:11:51.179Z,35
2018-05-01T11:12:51.360Z,30
2018-05-01T11:13:51.114Z,30
2018-05-01T11:14:51.414Z,35
2018-05-01T11:15:51.161Z,35
2018-05-01T11:16:51.451Z,35
2018-05-01T11:17:51.218Z,40
2018-05-01T11:18:51.234Z,40
2018-05-01T11:19:51.285Z,35
2018-05-01T11:20:51.650Z,35
2018-05-01T11:21:51.552Z,35
2018-05-01T11:22:50.747Z,35
2018-05-01T11:23:51.625Z,35
2018-05-01T11:24:51.725Z,45
2018-05-01T11:25:51.681Z,55
2018-05-01T11:26:51.122Z,40
2018-05-01T11:27:51.185Z,25
2018-05-01T11:28:51.464Z,60
2018-05-01T11:29:51.483Z,50
2018-05-01T11:30:51.766Z,50
2018-05-01T11:31:51.540Z,40
2018-05-01T11:32:51.270Z,45
2018-05-01T11:33:51.664Z,40
2018-05-01T11:34:51.331Z,35
2018-05-01T11:35:51.905Z,40
2018-05-01T11:36:51.927Z,40
2018-05-01T11:37:51.389Z,35
2018-05-01T11:38:51.442Z,35
2018-05-01T11:39:52.028Z,40
2018-05-01T11:40:51.752Z,40
2018-05-01T11:41:52.041Z,45
2018-05-01T11:42:51.782Z,45
2018-05-01T11:43:52.133Z,45
2018-05-01T11:44:51.846Z,40
2018-05-01T11:45:52.136Z,55
2018-05-01T11:46:51.873Z,75
2018-05-01T11:47:52.185Z,60
2018-05-01T11:48:52.998Z,45
2018-05-01T11:49:52.301Z,30
2018-05-01T11:50:51.707Z,40
2018-05-01T11:51:52.290Z,30
2018-05-01T11:52:52.324Z,40
2018-05-01T11:53:52.818Z,40
2018-05-01T11:54:52.362Z,20
2018-05-01T11:55:52.113Z,40
2018-05-01T11:56:52.148Z,40
2018-05-01T11:57:52.913Z,40
2018-05-01T11:58:52.454Z,45
2018-05-01T11:59:52.542Z,45
2018-05-01T12:00:52.258Z,45
2018-05-01T12:01:52.243Z,60
2018-05-01T12:02:52.728Z,70
2018-05-01T12:03:52.641Z,55
2018-05-01T12:04:52.596Z,45
2018-05-01T12:05:52.368Z,40
2018-05-01T12:06:52.653Z,40
2018-05-01T12:07:52.416Z,45
2018-05-01T12:08:52.410Z,25
2018-05-01T12:09:52.733Z,50
2018-05-01T12:10:51.929Z,20
2018-05-01T12:11:52.795Z,30
2018-05-01T12:12:52.268Z,40
2018-05-01T12:13:52.826Z,45
2018-05-01T12:14:52.854Z,40
2018-05-01T12:15:52.578Z,45
2018-05-01T12:16:52.367Z,55
2018-05-01T12:17:52.961Z,25
2018-05-01T12:18:52.962Z,30
2018-05-01T12:19:53.004Z,65
2018-05-01T12:20:52.448Z,60
2018-05-01T12:21:52.496Z,45
2018-05-01T12:22:52.757Z,40
2018-05-01T12:23:53.294Z,40
2018-05-01T12:24:53.169Z,40
2018-05-01T12:25:52.880Z,20
2018-05-01T12:26:52.919Z,40
2018-05-01T12:27:53.183Z,40
2018-05-01T12:28:52.923Z,45
2018-05-01T12:29:52.941Z,45
2018-05-01T12:30:52.979Z,45
2018-05-01T12:31:53.302Z,40
2018-05-01T12:32:52.460Z,40
2018-05-01T12:33:53.376Z,25
2018-05-01T12:34:53.333Z,55
2018-05-01T12:35:53.125Z,50
2018-05-01T12:36:53.984Z,45
2018-05-01T12:37:52.882Z,40
2018-05-01T12:38:53.467Z,35
2018-05-01T12:39:53.492Z,35
2018-05-01T12:40:53.514Z,35
2018-05-01T12:41:53.556Z,40
2018-05-01T12:42:53.291Z,40
2018-05-01T12:43:53.307Z,40
2018-05-01T12:44:53.389Z,40
2018-05-01T12:45:53.352Z,40
2018-05-01T12:46:53.395Z,40
2018-05-01T12:47:53.145Z,45
2018-05-01T12:48:53.170Z,40
2018-05-01T12:49:53.451Z,40
2018-05-01T12:50:53.774Z,45
2018-05-01T12:51:53.810Z,40
2018-05-01T12:52:53.810Z,35
2018-05-01T12:53:54.207Z,35
2018-05-01T12:54:53.882Z,35
2018-05-01T12:55:53.337Z,35
2018-05-01T12:56:53.647Z,35
2018-05-01T12:57:53.395Z,35
2018-05-01T12:58:53.698Z,15
2018-05-01T12:59:53.825Z,25
2018-05-01T13:00:53.718Z,60
2018-05-01T13:01:53.510Z,75
2018-05-01T13:02:53.814Z,45
2018-05-01T13:03:53.821Z,40
2018-05-01T13:04:53.838Z,40
2018-05-01T13:05:53.898Z,40
2018-05-01T13:06:54.197Z,40
2018-05-01T13:07:53.657Z,40
2018-05-01T13:08:54.214Z,15
2018-05-01T13:09:54.250Z,50
2018-05-01T13:10:54.301Z,55
2018-05-01T13:11:53.771Z,70
2018-05-01T13:12:54.064Z,50
2018-05-01T13:13:54.085Z,40
2018-05-01T13:14:54.133Z,40
2018-05-01T13:15:54.436Z,40
2018-05-01T13:16:54.463Z,40
2018-05-01T13:17:54.182Z,40
2018-05-01T13:18:54.197Z,40
2018-05-01T13:19:54.490Z,40
2018-05-01T13:20:54.645Z,40
2018-05-01T13:21:54.305Z,40
2018-05-01T13:22:54.594Z,40
2018-05-01T13:23:54.371Z,40
2018-05-01T13:24:54.370Z,40
2018-05-01T13:25:54.105Z,40
2018-05-01T13:26:54.434Z,40
2018-05-01T13:27:54.461Z,40
2018-05-01T13:28:54.463Z,40
2018-05-01T13:29:54.769Z,40
2018-05-01T13:30:54.521Z,45
2018-05-01T13:31:54.285Z,45
2018-05-01T13:32:54.906Z,50
2018-05-01T13:33:54.922Z,60
2018-05-01T13:34:54.904Z,45
2018-05-01T13:35:54.669Z,40
2018-05-01T13:36:54.665Z,40
2018-05-01T13:37:54.875Z,40
2018-05-01T13:38:54.464Z,40
2018-05-01T13:39:55.044Z,40
2018-05-01T13:40:55.148Z,45
2018-05-01T13:41:54.864Z,45
2018-05-01T13:42:54.849Z,45
2018-05-01T13:43:54.884Z,45
2018-05-01T13:44:54.896Z,45
2018-05-01T13:45:54.929Z,45
2018-05-01T13:46:54.941Z,45
2018-05-01T13:47:54.965Z,45
2018-05-01T13:48:54.531Z,45
2018-05-01T13:49:55.318Z,45
2018-05-01T13:50:55.061Z,45
2018-05-01T13:51:55.378Z,45
2018-05-01T13:52:55.394Z,45
2018-05-01T13:53:55.146Z,45
2018-05-01T13:54:54.878Z,45
2018-05-01T13:55:54.659Z,45
2018-05-01T13:56:55.215Z,45
2018-05-01T13:57:55.256Z,45
2018-05-01T13:58:55.327Z,45
2018-05-01T13:59:55.619Z,45
2018-05-01T14:00:55.346Z,45
2018-05-01T14:01:55.363Z,45
2018-05-01T14:02:55.457Z,45
2018-05-01T14:03:55.419Z,45
2018-05-01T14:04:55.504Z,45
2018-05-01T14:05:55.491Z,45
2018-05-01T14:06:55.509Z,45
2018-05-01T14:07:55.529Z,50
2018-05-01T14:08:55.655Z,50
2018-05-01T14:09:55.603Z,50
2018-05-01T14:10:55.344Z,50
2018-05-01T14:11:55.360Z,40
2018-05-01T14:12:55.676Z,50
2018-05-01T14:13:55.670Z,50
2018-05-01T14:14:55.715Z,25
2018-05-01T14:15:55.751Z,50
2018-05-01T14:16:55.771Z,30
2018-05-01T14:17:55.239Z,25
2018-05-01T14:18:55.843Z,50
2018-05-01T14:19:55.834Z,50
2018-05-01T14:20:55.638Z,50
2018-05-01T14:21:55.354Z,50
2018-05-01T14:22:56.216Z,50
2018-05-01T14:23:55.974Z,50
2018-05-01T14:24:55.716Z,50
2018-05-01T14:25:55.834Z,50
2018-05-01T14:26:56.075Z,50
2018-05-01T14:27:56.090Z,50
2018-05-01T14:28:56.400Z,50
2018-05-01T14:29:56.160Z,50
2018-05-01T14:30:56.196Z,45